createdAt,value
2022-12-04T00:00:00.320Z,7.00
2022-12-04T00:01:02.353Z,7.00
2022-12-04T00:03:00.396Z,7.00
2022-12-04T00:04:00.397Z,7.00
2022-12-04T00:05:00.781Z,7.00
2022-12-04T00:06:08.778Z,7.00
2022-12-04T00:07:00.285Z,7.00
2022-12-04T00:08:00.413Z,7.00
2022-12-04T00:09:00.253Z,7.00
2022-12-04T00:10:00.372Z,7.00
2022-12-04T00:11:00.518Z,7.00
2022-12-04T00:12:00.323Z,7.00
2022-12-04T00:13:00.231Z,7.00
2022-12-04T00:14:06.389Z,7.00
2022-12-04T00:15:24.611Z,7.00
2022-12-04T00:16:00.424Z,7.00
2022-12-04T00:17:00.263Z,7.00
2022-12-04T00:18:00.236Z,7.00
2022-12-04T00:19:00.230Z,7.10
2022-12-04T00:20:00.266Z,7.10
2022-12-04T00:21:04.034Z,7.10
2022-12-04T00:22:00.383Z,7.10
2022-12-04T00:23:00.237Z,7.10
2022-12-04T00:24:00.787Z,7.10
2022-12-04T00:25:00.287Z,7.10
2022-12-04T00:26:00.890Z,7.10
2022-12-04T00:27:00.354Z,7.10
2022-12-04T00:28:00.284Z,7.10
2022-12-04T00:29:00.269Z,7.10
2022-12-04T00:30:00.331Z,7.10
2022-12-04T00:31:03.686Z,7.10
2022-12-04T00:32:00.335Z,7.10
2022-12-04T00:33:00.245Z,7.10
2022-12-04T00:34:00.585Z,7.10
2022-12-04T00:35:00.236Z,7.10
2022-12-04T00:36:01.491Z,7.10
2022-12-04T00:37:00.243Z,7.10
2022-12-04T00:38:00.353Z,7.10
2022-12-04T00:39:00.239Z,7.10
2022-12-04T00:40:00.344Z,7.10
2022-12-04T00:41:00.305Z,7.10
2022-12-04T00:42:00.239Z,7.10
2022-12-04T00:43:00.237Z,7.10
2022-12-04T00:44:00.929Z,7.10
2022-12-04T00:45:00.305Z,7.10
2022-12-04T00:46:00.542Z,7.10
2022-12-04T00:47:00.230Z,7.10
2022-12-04T00:48:00.225Z,7.10
2022-12-04T00:49:00.225Z,6.50
2022-12-04T00:50:00.274Z,6.50
2022-12-04T00:51:01.351Z,6.50
2022-12-04T00:52:00.245Z,6.50
2022-12-04T00:53:00.285Z,6.50
2022-12-04T00:54:00.238Z,6.50
2022-12-04T00:55:00.266Z,6.50
2022-12-04T00:56:04.931Z,6.50
2022-12-04T00:57:00.247Z,6.50
2022-12-04T00:58:00.412Z,6.50
2022-12-04T00:59:00.236Z,6.50
2022-12-04T01:00:00.437Z,6.50
2022-12-04T01:01:01.484Z,6.50
2022-12-04T01:02:00.241Z,6.50
2022-12-04T01:03:00.889Z,6.50
2022-12-04T01:04:00.254Z,6.50
2022-12-04T01:05:00.454Z,6.50
2022-12-04T01:06:02.518Z,6.50
2022-12-04T01:07:05.007Z,6.50
2022-12-04T01:08:00.320Z,6.50
2022-12-04T01:09:02.304Z,6.50
2022-12-04T01:10:00.415Z,6.50
2022-12-04T01:11:04.377Z,6.50
2022-12-04T01:12:00.265Z,6.50
2022-12-04T01:13:00.233Z,6.50
2022-12-04T01:14:00.242Z,6.50
2022-12-04T01:15:00.255Z,6.50
2022-12-04T01:16:00.285Z,6.50
2022-12-04T01:17:00.294Z,6.50
2022-12-04T01:18:00.264Z,6.50
2022-12-04T01:19:00.628Z,6.40
2022-12-04T01:20:00.309Z,6.40
2022-12-04T01:21:00.239Z,6.40
2022-12-04T01:22:00.275Z,6.40
2022-12-04T01:23:00.316Z,6.40
2022-12-04T01:24:00.327Z,6.40
2022-12-04T01:25:00.298Z,6.40
2022-12-04T01:26:00.287Z,6.40
2022-12-04T01:27:00.276Z,6.40
2022-12-04T01:28:00.229Z,6.40
2022-12-04T01:29:00.534Z,6.40
2022-12-04T01:30:00.245Z,6.40
2022-12-04T01:31:02.295Z,6.40
2022-12-04T01:32:00.353Z,6.40
2022-12-04T01:33:00.249Z,6.40
2022-12-04T01:34:00.251Z,6.40
2022-12-04T01:35:00.228Z,6.40
2022-12-04T01:36:00.910Z,6.40
2022-12-04T01:37:00.252Z,6.40
2022-12-04T01:38:00.222Z,6.40
2022-12-04T01:39:00.225Z,6.40
2022-12-04T01:40:00.331Z,6.40
2022-12-04T01:41:00.405Z,6.40
2022-12-04T01:42:00.231Z,6.40
2022-12-04T01:43:00.288Z,6.40
2022-12-04T01:44:10.154Z,6.40
2022-12-04T01:45:10.203Z,6.40
2022-12-04T01:46:00.866Z,6.40
2022-12-04T01:47:00.456Z,6.40
2022-12-04T01:48:05.234Z,6.40
2022-12-04T01:49:00.755Z,7.00
2022-12-04T01:50:00.284Z,7.00
2022-12-04T01:51:05.818Z,7.00
2022-12-04T01:52:02.553Z,7.00
2022-12-04T01:53:00.262Z,7.00
2022-12-04T01:54:02.428Z,7.00
2022-12-04T01:55:00.282Z,7.00
2022-12-04T01:56:01.832Z,7.00
2022-12-04T01:57:05.812Z,7.00
2022-12-04T01:58:00.450Z,7.00
2022-12-04T01:59:01.292Z,7.00
2022-12-04T02:00:04.594Z,7.00
2022-12-04T02:01:07.978Z,7.00
2022-12-04T02:02:06.401Z,7.00
2022-12-04T02:03:00.397Z,7.00
2022-12-04T02:04:01.218Z,7.00
2022-12-04T02:05:01.629Z,7.00
2022-12-04T02:06:00.404Z,7.00
2022-12-04T02:07:00.242Z,7.00
2022-12-04T02:08:01.949Z,7.00
2022-12-04T02:09:00.417Z,7.00
2022-12-04T02:10:00.449Z,7.00
2022-12-04T02:11:01.253Z,7.00
2022-12-04T02:12:07.181Z,7.00
2022-12-04T02:13:00.271Z,7.00
2022-12-04T02:14:01.241Z,7.00
2022-12-04T02:15:00.283Z,7.00
2022-12-04T02:16:09.213Z,7.00
2022-12-04T02:17:10.160Z,7.00
2022-12-04T02:18:06.623Z,7.00
2022-12-04T02:19:10.159Z,7.20
2022-12-04T02:20:10.404Z,7.20
2022-12-04T02:21:10.225Z,7.20
2022-12-04T02:22:03.719Z,7.20
2022-12-04T02:23:10.219Z,7.20
2022-12-04T02:24:08.398Z,7.20
2022-12-04T02:25:07.442Z,7.20
2022-12-04T02:26:10.234Z,7.20
2022-12-04T02:27:02.672Z,7.20
2022-12-04T02:28:03.933Z,7.20
2022-12-04T02:29:03.501Z,7.20
2022-12-04T02:30:02.560Z,7.20
2022-12-04T02:31:01.392Z,7.20
2022-12-04T02:32:10.252Z,7.20
2022-12-04T02:33:10.253Z,7.20
2022-12-04T02:34:03.377Z,7.20
2022-12-04T02:35:05.695Z,7.20
2022-12-04T02:36:04.145Z,7.20
2022-12-04T02:37:03.613Z,7.20
2022-12-04T02:38:06.192Z,7.20
2022-12-04T02:39:05.893Z,7.20
2022-12-04T02:40:04.031Z,7.20
2022-12-04T02:41:05.353Z,7.20
2022-12-04T02:42:04.003Z,7.20
2022-12-04T02:43:04.390Z,7.20
2022-12-04T02:44:05.948Z,7.20
2022-12-04T02:45:02.388Z,7.20
2022-12-04T02:46:04.646Z,7.20
2022-12-04T02:47:03.589Z,7.20
2022-12-04T02:48:01.936Z,7.20
2022-12-04T02:49:01.275Z,7.70
2022-12-04T02:50:02.014Z,7.70
2022-12-04T02:51:01.089Z,7.70
2022-12-04T02:52:02.275Z,7.70
2022-12-04T02:53:10.289Z,7.70
2022-12-04T02:54:03.743Z,7.70
2022-12-04T02:55:08.343Z,7.70
2022-12-04T02:56:04.042Z,7.70
2022-12-04T02:57:03.384Z,7.70
2022-12-04T02:58:03.942Z,7.70
2022-12-04T02:59:04.491Z,7.70
2022-12-04T03:00:03.786Z,7.70
2022-12-04T03:01:01.645Z,7.70
2022-12-04T03:02:05.712Z,7.70
2022-12-04T03:03:10.049Z,7.70
2022-12-04T03:04:05.289Z,7.70
2022-12-04T03:05:04.444Z,7.70
2022-12-04T03:06:03.913Z,7.70
2022-12-04T03:07:04.082Z,7.70
2022-12-04T03:08:04.383Z,7.70
2022-12-04T03:09:05.284Z,7.70
2022-12-04T03:10:04.758Z,7.70
2022-12-04T03:11:00.744Z,7.70
2022-12-04T03:12:06.174Z,7.70
2022-12-04T03:13:10.257Z,7.70
2022-12-04T03:14:05.346Z,7.70
2022-12-04T03:15:04.071Z,7.70
2022-12-04T03:16:10.230Z,7.70
2022-12-04T03:17:04.052Z,7.70
2022-12-04T03:18:02.402Z,7.70
2022-12-04T03:19:02.631Z,9.70
2022-12-04T03:20:04.067Z,9.70
2022-12-04T03:21:03.140Z,9.70
2022-12-04T03:22:03.247Z,9.70
2022-12-04T03:23:05.283Z,9.70
2022-12-04T03:24:03.817Z,9.70
2022-12-04T03:25:02.150Z,9.70
2022-12-04T03:26:01.238Z,9.70
2022-12-04T03:27:10.268Z,9.70
2022-12-04T03:28:03.096Z,9.70
2022-12-04T03:29:10.274Z,9.70
2022-12-04T03:30:04.538Z,9.70
2022-12-04T03:31:03.846Z,9.70
2022-12-04T03:32:05.377Z,9.70
2022-12-04T03:33:06.265Z,9.70
2022-12-04T03:34:01.723Z,9.70
2022-12-04T03:35:04.576Z,9.70
2022-12-04T03:36:07.402Z,9.70
2022-12-04T03:37:03.093Z,9.70
2022-12-04T03:38:03.761Z,9.70
2022-12-04T03:39:10.266Z,9.70
2022-12-04T03:40:10.357Z,9.70
2022-12-04T03:41:03.992Z,9.70
2022-12-04T03:42:05.823Z,9.70
2022-12-04T03:43:07.541Z,9.70
2022-12-04T03:44:07.738Z,9.70
2022-12-04T03:45:03.386Z,9.70
2022-12-04T03:46:10.320Z,9.70
2022-12-04T03:47:01.231Z,9.70
2022-12-04T03:48:07.194Z,9.70
2022-12-04T03:49:08.149Z,12.10
2022-12-04T03:50:06.286Z,12.10
2022-12-04T03:51:08.001Z,12.10
2022-12-04T03:52:10.235Z,12.10
2022-12-04T03:53:01.246Z,12.10
2022-12-04T03:54:06.919Z,12.10
2022-12-04T03:55:05.936Z,12.10
2022-12-04T03:56:00.229Z,12.10
2022-12-04T03:57:03.168Z,12.10
2022-12-04T03:58:03.698Z,12.10
2022-12-04T03:59:05.526Z,12.10
2022-12-04T04:00:08.319Z,12.10
2022-12-04T04:01:02.232Z,12.10
2022-12-04T04:02:02.212Z,12.10
2022-12-04T04:03:05.926Z,12.10
2022-12-04T04:04:03.339Z,12.10
2022-12-04T04:05:00.610Z,12.10
2022-12-04T04:06:03.298Z,12.10
2022-12-04T04:07:10.197Z,12.10
2022-12-04T04:08:02.872Z,12.10
2022-12-04T04:09:05.325Z,12.10
2022-12-04T04:10:04.763Z,12.10
2022-12-04T04:11:01.298Z,12.10
2022-12-04T04:12:07.181Z,12.10
2022-12-04T04:13:01.482Z,12.10
2022-12-04T04:14:04.603Z,12.10
2022-12-04T04:15:05.286Z,12.10
2022-12-04T04:16:03.124Z,12.10
2022-12-04T04:17:04.729Z,12.10
2022-12-04T04:18:00.976Z,12.10
2022-12-04T04:19:01.378Z,12.80
2022-12-04T04:20:03.440Z,12.80
2022-12-04T04:21:00.781Z,12.80
2022-12-04T04:22:03.260Z,12.80
2022-12-04T04:23:02.523Z,12.80
2022-12-04T04:24:00.932Z,12.80
2022-12-04T04:25:03.146Z,12.80
2022-12-04T04:26:02.043Z,12.80
2022-12-04T04:27:00.753Z,12.80
2022-12-04T04:28:00.240Z,12.80
2022-12-04T04:29:00.464Z,12.80
2022-12-04T04:30:00.448Z,12.80
2022-12-04T04:31:04.194Z,12.80
2022-12-04T04:32:00.203Z,12.80
2022-12-04T04:33:08.069Z,12.80
2022-12-04T04:34:03.504Z,12.80
2022-12-04T04:35:10.151Z,12.80
2022-12-04T04:36:07.807Z,12.80
2022-12-04T04:37:07.498Z,12.80
2022-12-04T04:38:01.243Z,12.80
2022-12-04T04:39:03.503Z,12.80
2022-12-04T04:40:00.251Z,12.80
2022-12-04T04:41:09.071Z,12.80
2022-12-04T04:42:10.138Z,12.80
2022-12-04T04:43:10.151Z,12.80
2022-12-04T04:44:08.013Z,12.80
2022-12-04T04:45:10.180Z,12.80
2022-12-04T04:46:05.081Z,12.80
2022-12-04T04:47:02.644Z,12.80
2022-12-04T04:48:06.892Z,12.80
2022-12-04T04:49:01.830Z,15.00
2022-12-04T04:50:02.096Z,15.00
2022-12-04T04:51:02.745Z,15.00
2022-12-04T04:52:01.001Z,15.00
2022-12-04T04:53:04.261Z,15.00
2022-12-04T04:54:03.432Z,15.00
2022-12-04T04:55:02.065Z,15.00
2022-12-04T04:56:00.878Z,15.00
2022-12-04T04:57:00.230Z,15.00
2022-12-04T04:58:10.154Z,15.00
2022-12-04T04:59:00.242Z,15.00
2022-12-04T05:00:01.204Z,15.00
2022-12-04T05:01:02.982Z,15.00
2022-12-04T05:02:00.383Z,15.00
2022-12-04T05:03:00.289Z,15.00
2022-12-04T05:04:01.640Z,15.00
2022-12-04T05:05:00.306Z,15.00
2022-12-04T05:06:00.365Z,15.00
2022-12-04T05:07:00.270Z,15.00
2022-12-04T05:08:00.453Z,15.00
2022-12-04T05:09:00.286Z,15.00
2022-12-04T05:10:00.376Z,15.00
2022-12-04T05:11:00.739Z,15.00
2022-12-04T05:12:00.235Z,15.00
2022-12-04T05:13:00.262Z,15.00
2022-12-04T05:14:00.242Z,15.00
2022-12-04T05:15:00.240Z,15.00
2022-12-04T05:16:02.774Z,15.00
2022-12-04T05:17:02.117Z,15.00
2022-12-04T05:18:00.283Z,15.00
2022-12-04T05:19:00.288Z,14.30
2022-12-04T05:20:00.550Z,14.30
2022-12-04T05:21:08.453Z,14.30
2022-12-04T05:22:00.220Z,14.30
2022-12-04T05:23:00.249Z,14.30
2022-12-04T05:24:00.267Z,14.30
2022-12-04T05:25:00.563Z,14.30
2022-12-04T05:26:00.949Z,14.30
2022-12-04T05:27:00.243Z,14.30
2022-12-04T05:28:00.264Z,14.30
2022-12-04T05:29:00.311Z,14.30
2022-12-04T05:30:00.265Z,14.30
2022-12-04T05:31:01.012Z,14.30
2022-12-04T05:32:00.242Z,14.30
2022-12-04T05:33:00.321Z,14.30
2022-12-04T05:34:00.328Z,14.30
2022-12-04T05:35:00.219Z,14.30
2022-12-04T05:36:01.662Z,14.30
2022-12-04T05:37:00.231Z,14.30
2022-12-04T05:38:00.235Z,14.30
2022-12-04T05:39:00.260Z,14.30
2022-12-04T05:40:00.270Z,14.30
2022-12-04T05:41:01.132Z,14.30
2022-12-04T05:42:00.230Z,14.30
2022-12-04T05:43:00.255Z,14.30
2022-12-04T05:44:00.239Z,14.30
2022-12-04T05:45:00.264Z,14.30
2022-12-04T05:46:01.104Z,14.30
2022-12-04T05:47:00.461Z,14.30
2022-12-04T05:48:00.237Z,14.30
2022-12-04T05:49:00.267Z,13.80
2022-12-04T05:50:00.236Z,13.80
2022-12-04T05:51:03.682Z,13.80
2022-12-04T05:52:03.609Z,13.80
2022-12-04T05:53:00.243Z,13.80
2022-12-04T05:54:00.330Z,13.80
2022-12-04T05:55:00.476Z,13.80
2022-12-04T05:56:01.142Z,13.80
2022-12-04T05:57:00.244Z,13.80
2022-12-04T05:58:00.258Z,13.80
2022-12-04T05:59:00.240Z,13.80
2022-12-04T06:00:00.332Z,13.80
2022-12-04T06:01:05.975Z,13.80
2022-12-04T06:02:00.319Z,13.80
2022-12-04T06:03:00.369Z,13.80
2022-12-04T06:04:00.246Z,13.80
2022-12-04T06:05:00.377Z,13.80
2022-12-04T06:06:00.222Z,13.80
2022-12-04T06:07:00.246Z,13.80
2022-12-04T06:08:00.376Z,13.80
2022-12-04T06:09:00.604Z,13.80
2022-12-04T06:10:00.287Z,13.80
2022-12-04T06:11:00.313Z,13.80
2022-12-04T06:12:00.444Z,13.80
2022-12-04T06:13:00.436Z,13.80
2022-12-04T06:14:01.439Z,13.80
2022-12-04T06:15:00.276Z,13.80
2022-12-04T06:16:00.345Z,13.80
2022-12-04T06:17:00.232Z,13.80
2022-12-04T06:18:00.241Z,13.80
2022-12-04T06:19:01.546Z,12.70
2022-12-04T06:20:00.673Z,12.70
2022-12-04T06:21:00.272Z,12.70
2022-12-04T06:22:00.291Z,12.70
2022-12-04T06:23:00.303Z,12.70
2022-12-04T06:24:00.402Z,12.70
2022-12-04T06:25:00.236Z,12.70
2022-12-04T06:26:06.921Z,12.70
2022-12-04T06:27:26.650Z,12.70
2022-12-04T06:28:00.237Z,12.70
2022-12-04T06:29:00.252Z,12.70
2022-12-04T06:30:00.601Z,12.70
2022-12-04T06:31:02.440Z,12.70
2022-12-04T06:32:00.345Z,12.70
2022-12-04T06:33:00.257Z,12.70
2022-12-04T06:34:00.555Z,12.70
2022-12-04T06:35:00.254Z,12.70
2022-12-04T06:36:01.876Z,12.70
2022-12-04T06:37:00.241Z,12.70
2022-12-04T06:38:00.232Z,12.70
2022-12-04T06:39:00.531Z,12.70
2022-12-04T06:40:00.304Z,12.70
2022-12-04T06:41:04.166Z,12.70
2022-12-04T06:42:00.245Z,12.70
2022-12-04T06:43:00.290Z,12.70
2022-12-04T06:44:00.298Z,12.70
2022-12-04T06:45:00.232Z,12.70
2022-12-04T06:46:01.301Z,12.70
2022-12-04T06:47:01.137Z,12.70
2022-12-04T06:48:00.225Z,12.70
2022-12-04T06:49:00.842Z,11.80
2022-12-04T06:50:00.260Z,11.80
2022-12-04T06:51:04.820Z,11.80
2022-12-04T06:52:00.235Z,11.80
2022-12-04T06:53:06.535Z,11.80
2022-12-04T06:54:00.819Z,11.80
2022-12-04T06:55:00.240Z,11.80
2022-12-04T06:56:01.554Z,11.80
2022-12-04T06:57:00.239Z,11.80
2022-12-04T06:58:00.234Z,11.80
2022-12-04T06:59:01.071Z,11.80
2022-12-04T07:00:00.329Z,11.80
2022-12-04T07:01:05.432Z,11.80
2022-12-04T07:02:00.364Z,11.80
2022-12-04T07:03:00.225Z,11.80
2022-12-04T07:04:01.012Z,11.80
2022-12-04T07:05:00.274Z,11.80
2022-12-04T07:06:08.894Z,11.80
2022-12-04T07:07:00.230Z,11.80
2022-12-04T07:08:00.373Z,11.80
2022-12-04T07:09:01.601Z,11.80
2022-12-04T07:10:00.228Z,11.80
2022-12-04T07:11:00.964Z,11.80
2022-12-04T07:12:00.257Z,11.80
2022-12-04T07:13:00.217Z,11.80
2022-12-04T07:14:00.332Z,11.80
2022-12-04T07:15:00.250Z,11.80
2022-12-04T07:16:01.427Z,11.80
2022-12-04T07:17:00.320Z,11.80
2022-12-04T07:18:00.248Z,11.80
2022-12-04T07:19:00.246Z,10.80
2022-12-04T07:20:00.226Z,10.80
2022-12-04T07:21:03.505Z,10.80
2022-12-04T07:22:00.235Z,10.80
2022-12-04T07:23:05.548Z,10.80
2022-12-04T07:24:00.656Z,10.80
2022-12-04T07:25:00.276Z,10.80
2022-12-04T07:26:04.325Z,10.80
2022-12-04T07:27:00.252Z,10.80
2022-12-04T07:28:00.272Z,10.80
2022-12-04T07:29:00.343Z,10.80
2022-12-04T07:30:00.222Z,10.80
2022-12-04T07:31:04.021Z,10.80
2022-12-04T07:32:00.355Z,10.80
2022-12-04T07:33:00.234Z,10.80
2022-12-04T07:34:00.303Z,10.80
2022-12-04T07:35:00.296Z,10.80
2022-12-04T07:36:01.442Z,10.80
2022-12-04T07:37:00.290Z,10.80
2022-12-04T07:38:00.234Z,10.80
2022-12-04T07:39:00.276Z,10.80
2022-12-04T07:40:00.229Z,10.80
2022-12-04T07:41:01.726Z,10.80
2022-12-04T07:42:00.250Z,10.80
2022-12-04T07:43:00.242Z,10.80
2022-12-04T07:44:00.238Z,10.80
2022-12-04T07:45:00.221Z,10.80
2022-12-04T07:46:04.390Z,10.80
2022-12-04T07:47:00.264Z,10.80
2022-12-04T07:48:00.259Z,10.80
2022-12-04T07:49:00.233Z,13.30
2022-12-04T07:50:00.264Z,13.30
2022-12-04T07:51:03.637Z,13.30
2022-12-04T07:52:00.256Z,13.30
2022-12-04T07:53:00.242Z,13.30
2022-12-04T07:54:03.525Z,13.30
2022-12-04T07:55:00.241Z,13.30
2022-12-04T07:56:00.657Z,13.30
2022-12-04T07:57:00.239Z,13.30
2022-12-04T07:58:00.268Z,13.30
2022-12-04T07:59:00.686Z,13.30
2022-12-04T08:00:00.314Z,13.30
2022-12-04T08:01:04.376Z,13.30
2022-12-04T08:02:00.339Z,13.30
2022-12-04T08:03:00.239Z,13.30
2022-12-04T08:04:00.434Z,13.30
2022-12-04T08:05:00.412Z,13.30
2022-12-04T08:06:00.797Z,13.30
2022-12-04T08:07:00.231Z,13.30
2022-12-04T08:08:00.346Z,13.30
2022-12-04T08:09:04.746Z,13.30
2022-12-04T08:10:00.325Z,13.30
2022-12-04T08:11:00.607Z,13.30
2022-12-04T08:12:00.228Z,13.30
2022-12-04T08:13:00.243Z,13.30
2022-12-04T08:14:01.585Z,13.30
2022-12-04T08:15:00.498Z,13.30
2022-12-04T08:16:01.767Z,13.30
2022-12-04T08:17:00.337Z,13.30
2022-12-04T08:18:00.224Z,13.30
2022-12-04T08:19:00.304Z,13.40
2022-12-04T08:20:00.239Z,13.40
2022-12-04T08:21:05.768Z,13.40
2022-12-04T08:22:00.298Z,13.40
2022-12-04T08:23:00.297Z,13.40
2022-12-04T08:24:00.821Z,13.40
2022-12-04T08:25:00.315Z,13.40
2022-12-04T08:26:00.765Z,13.40
2022-12-04T08:27:00.264Z,13.40
2022-12-04T08:28:00.226Z,13.40
2022-12-04T08:29:00.690Z,13.40
2022-12-04T08:30:00.227Z,13.40
2022-12-04T08:31:10.307Z,13.40
2022-12-04T08:32:00.241Z,13.40
2022-12-04T08:33:00.271Z,13.40
2022-12-04T08:34:01.364Z,13.40
2022-12-04T08:35:00.267Z,13.40
2022-12-04T08:36:00.321Z,13.40
2022-12-04T08:37:00.239Z,13.40
2022-12-04T08:38:00.229Z,13.40
2022-12-04T08:39:00.308Z,13.40
2022-12-04T08:40:00.255Z,13.40
2022-12-04T08:41:00.983Z,13.40
2022-12-04T08:42:00.271Z,13.40
2022-12-04T08:43:00.995Z,13.40
2022-12-04T08:44:00.359Z,13.40
2022-12-04T08:45:00.318Z,13.40
2022-12-04T08:46:01.721Z,13.40
2022-12-04T08:47:00.348Z,13.40
2022-12-04T08:48:00.334Z,13.40
2022-12-04T08:49:00.543Z,13.40
2022-12-04T08:50:00.282Z,15.70
2022-12-04T08:51:00.673Z,15.70
2022-12-04T08:52:00.358Z,15.70
2022-12-04T08:53:00.326Z,15.70
2022-12-04T08:54:02.320Z,15.70
2022-12-04T08:55:00.311Z,15.70
2022-12-04T08:56:00.365Z,15.70
2022-12-04T08:57:00.340Z,15.70
2022-12-04T08:58:00.267Z,15.70
2022-12-04T08:59:00.779Z,15.70
2022-12-04T09:00:00.387Z,15.70
2022-12-04T09:01:04.869Z,15.70
2022-12-04T09:02:00.384Z,15.70
2022-12-04T09:03:00.297Z,15.70
2022-12-04T09:04:00.394Z,15.70
2022-12-04T09:05:00.341Z,15.70
2022-12-04T09:06:00.946Z,15.70
2022-12-04T09:07:00.290Z,15.70
2022-12-04T09:08:00.404Z,15.70
2022-12-04T09:09:00.298Z,15.70
2022-12-04T09:10:00.702Z,15.70
2022-12-04T09:11:03.027Z,15.70
2022-12-04T09:12:00.351Z,15.70
2022-12-04T09:13:00.349Z,15.70
2022-12-04T09:14:00.969Z,15.70
2022-12-04T09:15:00.236Z,15.70
2022-12-04T09:16:03.466Z,15.70
2022-12-04T09:17:00.325Z,15.70
2022-12-04T09:18:00.237Z,15.70
2022-12-04T09:19:00.231Z,15.70
2022-12-04T09:20:01.330Z,16.40
2022-12-04T09:21:01.332Z,16.40
2022-12-04T09:22:00.282Z,16.40
2022-12-04T09:23:04.945Z,16.40
2022-12-04T09:24:00.256Z,16.40
2022-12-04T09:25:00.261Z,16.40
2022-12-04T09:26:00.548Z,16.40
2022-12-04T09:27:00.426Z,16.40
2022-12-04T09:28:00.262Z,16.40
2022-12-04T09:29:01.611Z,16.40
2022-12-04T09:30:00.326Z,16.40
2022-12-04T09:31:03.088Z,16.40
2022-12-04T09:32:00.270Z,16.40
2022-12-04T09:33:00.263Z,16.40
2022-12-04T09:34:00.712Z,16.40
2022-12-04T09:35:00.291Z,16.40
2022-12-04T09:36:01.054Z,16.40
2022-12-04T09:37:00.266Z,16.40
2022-12-04T09:38:00.298Z,16.40
2022-12-04T09:39:00.256Z,16.40
2022-12-04T09:40:00.254Z,16.40
2022-12-04T09:41:10.166Z,16.40
2022-12-04T09:42:06.316Z,16.40
2022-12-04T09:43:10.168Z,16.40
2022-12-04T09:44:01.246Z,16.40
2022-12-04T09:45:03.637Z,16.40
2022-12-04T09:46:05.557Z,16.40
2022-12-04T09:47:03.889Z,16.40
2022-12-04T09:48:00.321Z,16.40
2022-12-04T09:49:04.938Z,18.40
2022-12-04T09:50:03.620Z,18.40
2022-12-04T09:51:00.833Z,18.40
2022-12-04T09:52:01.361Z,18.40
2022-12-04T09:53:03.618Z,18.40
2022-12-04T09:54:04.138Z,18.40
2022-12-04T09:55:02.446Z,18.40
2022-12-04T09:56:03.085Z,18.40
2022-12-04T09:57:04.477Z,18.40
2022-12-04T09:58:02.748Z,18.40
2022-12-04T09:59:07.990Z,18.40
2022-12-04T10:00:03.158Z,18.40
2022-12-04T10:01:02.299Z,18.40
2022-12-04T10:02:10.212Z,18.40
2022-12-04T10:03:01.450Z,18.40
2022-12-04T10:04:06.089Z,18.40
2022-12-04T10:05:00.278Z,18.40
2022-12-04T10:06:10.193Z,18.40
2022-12-04T10:07:03.520Z,18.40
2022-12-04T10:08:07.506Z,18.40
2022-12-04T10:09:03.271Z,18.40
2022-12-04T10:10:04.548Z,18.40
2022-12-04T10:11:06.409Z,18.40
2022-12-04T10:12:06.050Z,18.40
2022-12-04T10:13:03.498Z,18.40
2022-12-04T10:14:10.151Z,18.40
2022-12-04T10:15:05.036Z,18.40
2022-12-04T10:16:01.274Z,18.40
2022-12-04T10:17:10.161Z,18.40
2022-12-04T10:18:08.483Z,18.40
2022-12-04T10:19:10.147Z,18.20
2022-12-04T10:20:09.043Z,18.20
2022-12-04T10:21:06.904Z,18.20
2022-12-04T10:22:10.148Z,18.20
2022-12-04T10:23:12.215Z,18.20
2022-12-04T10:24:00.219Z,18.20
2022-12-04T10:25:05.183Z,18.20
2022-12-04T10:26:01.589Z,18.20
2022-12-04T10:27:05.053Z,18.20
2022-12-04T10:28:01.229Z,18.20
2022-12-04T10:29:02.246Z,18.20
2022-12-04T10:30:06.216Z,18.20
2022-12-04T10:31:01.270Z,18.20
2022-12-04T10:32:10.156Z,18.20
2022-12-04T10:33:10.158Z,18.20
2022-12-04T10:34:04.610Z,18.20
2022-12-04T10:35:10.186Z,18.20
2022-12-04T10:36:00.565Z,18.20
2022-12-04T10:37:05.299Z,18.20
2022-12-04T10:38:08.816Z,18.20
2022-12-04T10:39:05.572Z,18.20
2022-12-04T10:40:10.149Z,18.20
2022-12-04T10:41:13.332Z,18.20
2022-12-04T10:42:04.379Z,18.20
2022-12-04T10:43:10.112Z,18.20
2022-12-04T10:44:00.247Z,18.20
2022-12-04T10:45:00.473Z,18.20
2022-12-04T10:46:00.243Z,18.20
2022-12-04T10:47:01.033Z,18.20
2022-12-04T10:48:00.334Z,18.20
2022-12-04T10:49:02.201Z,18.20
2022-12-04T10:50:02.340Z,21.20
2022-12-04T10:51:00.410Z,21.20
2022-12-04T10:52:00.770Z,21.20
2022-12-04T10:53:00.320Z,21.20
2022-12-04T10:54:00.389Z,21.20
2022-12-04T10:55:00.448Z,21.20
2022-12-04T10:56:10.161Z,21.20
2022-12-04T10:57:01.987Z,21.20
2022-12-04T10:58:00.246Z,21.20
2022-12-04T10:59:01.434Z,21.20
2022-12-04T11:00:00.704Z,21.20
2022-12-04T11:01:02.812Z,21.20
2022-12-04T11:02:06.961Z,21.20
2022-12-04T11:03:08.145Z,21.20
2022-12-04T11:04:04.697Z,21.20
2022-12-04T11:05:03.176Z,21.20
2022-12-04T11:06:02.487Z,21.20
2022-12-04T11:07:01.507Z,21.20
2022-12-04T11:08:02.034Z,21.20
2022-12-04T11:09:01.194Z,21.20
2022-12-04T11:10:02.218Z,21.20
2022-12-04T11:11:01.584Z,21.20
2022-12-04T11:12:04.830Z,21.20
2022-12-04T11:13:01.268Z,21.20
2022-12-04T11:14:01.184Z,21.20
2022-12-04T11:15:03.504Z,21.20
2022-12-04T11:16:00.352Z,21.20
2022-12-04T11:17:01.674Z,21.20
2022-12-04T11:18:09.248Z,21.20
2022-12-04T11:19:00.337Z,21.20
2022-12-04T11:20:03.805Z,22.70
2022-12-04T11:21:10.144Z,22.70
2022-12-04T11:22:09.910Z,22.70
2022-12-04T11:23:00.317Z,22.70
2022-12-04T11:24:00.289Z,22.70
2022-12-04T11:25:00.514Z,22.70
2022-12-04T11:26:05.518Z,22.70
2022-12-04T11:27:01.697Z,22.70
2022-12-04T11:28:01.256Z,22.70
2022-12-04T11:29:00.840Z,22.70
2022-12-04T11:30:01.197Z,22.70
2022-12-04T11:31:02.918Z,22.70
2022-12-04T11:32:07.254Z,22.70
2022-12-04T11:33:00.993Z,22.70
2022-12-04T11:34:04.261Z,22.70
2022-12-04T11:35:05.343Z,22.70
2022-12-04T11:36:02.107Z,22.70
2022-12-04T11:37:00.834Z,22.70
2022-12-04T11:38:04.840Z,22.70
2022-12-04T11:39:05.855Z,22.70
2022-12-04T11:40:02.523Z,22.70
2022-12-04T11:41:02.127Z,22.70
2022-12-04T11:42:03.865Z,22.70
2022-12-04T11:43:00.230Z,22.70
2022-12-04T11:44:00.871Z,22.70
2022-12-04T11:45:01.754Z,22.70
2022-12-04T11:46:01.551Z,22.70
2022-12-04T11:47:03.074Z,22.70
2022-12-04T11:48:02.328Z,22.70
2022-12-04T11:49:00.262Z,22.70
2022-12-04T11:50:00.539Z,22.00
2022-12-04T11:51:09.709Z,22.00
2022-12-04T11:52:01.257Z,22.00
2022-12-04T11:53:00.288Z,22.00
2022-12-04T11:54:10.169Z,22.00
2022-12-04T11:55:02.455Z,22.00
2022-12-04T11:56:00.233Z,22.00
2022-12-04T11:57:03.474Z,22.00
2022-12-04T11:58:03.497Z,22.00
2022-12-04T11:59:03.478Z,22.00
2022-12-04T12:00:04.127Z,22.00
2022-12-04T12:01:07.698Z,22.00
2022-12-04T12:02:10.242Z,22.00
2022-12-04T12:03:10.312Z,22.00
2022-12-04T12:04:01.240Z,22.00
2022-12-04T12:05:10.174Z,22.00
2022-12-04T12:06:09.109Z,22.00
2022-12-04T12:07:10.153Z,22.00
2022-12-04T12:08:10.148Z,22.00
2022-12-04T12:09:10.162Z,22.00
2022-12-04T12:10:01.234Z,22.00
2022-12-04T12:11:05.805Z,22.00
2022-12-04T12:12:01.248Z,22.00
2022-12-04T12:13:10.159Z,22.00
2022-12-04T12:14:03.527Z,22.00
2022-12-04T12:15:10.214Z,22.00
2022-12-04T12:16:01.273Z,22.00
2022-12-04T12:17:10.191Z,22.00
2022-12-04T12:18:10.173Z,22.00
2022-12-04T12:19:10.173Z,22.90
2022-12-04T12:20:10.198Z,22.90
2022-12-04T12:21:03.540Z,22.90
2022-12-04T12:22:05.244Z,22.90
2022-12-04T12:23:07.019Z,22.90
2022-12-04T12:24:04.466Z,22.90
2022-12-04T12:25:00.251Z,22.90
2022-12-04T12:26:03.547Z,22.90
2022-12-04T12:27:10.197Z,22.90
2022-12-04T12:28:11.114Z,22.90
2022-12-04T12:29:10.149Z,22.90
2022-12-04T12:50:10.191Z,23.60
2022-12-04T12:51:28.950Z,23.60
2022-12-04T12:52:05.061Z,23.60
2022-12-04T12:53:04.276Z,23.60
2022-12-04T12:54:10.148Z,23.60
2022-12-04T12:55:03.002Z,23.60
2022-12-04T12:56:02.439Z,23.60
2022-12-04T12:57:10.179Z,23.60
2022-12-04T12:58:10.157Z,23.60
2022-12-04T12:59:02.921Z,23.60
2022-12-04T13:00:10.179Z,23.60
2022-12-04T13:01:07.647Z,23.60
2022-12-04T13:02:10.280Z,23.60
2022-12-04T13:03:04.554Z,23.60
2022-12-04T13:04:01.240Z,23.60
2022-12-04T13:05:03.167Z,23.60
2022-12-04T13:06:03.251Z,23.60
2022-12-04T13:07:05.431Z,23.60
2022-12-04T13:08:05.265Z,23.60
2022-12-04T13:09:10.178Z,23.60
2022-12-04T13:10:10.193Z,23.60
2022-12-04T13:11:06.434Z,23.60
2022-12-04T13:12:05.204Z,23.60
2022-12-04T13:13:03.293Z,23.60
2022-12-04T13:14:01.392Z,23.60
2022-12-04T13:15:00.344Z,23.60
2022-12-04T13:16:03.554Z,23.60
2022-12-04T13:17:03.558Z,23.60
2022-12-04T13:18:01.984Z,23.60
2022-12-04T13:19:07.658Z,23.60
2022-12-04T13:20:08.237Z,18.90
2022-12-04T13:21:02.969Z,18.90